sensor_id;sensor_type;location;lat;lon;timestamp;P1;durP1;ratioP1;P2;durP2;ratioP2
38615;SDS011;24370;51.986;4.666;2023-09-12T00:00:05;35.08;;;16.58;;
38615;SDS011;24370;51.986;4.666;2023-09-12T00:02:31;31.88;;;16.48;;
38615;SDS011;24370;51.986;4.666;2023-09-12T00:04:56;32.60;;;15.25;;
38615;SDS011;24370;51.986;4.666;2023-09-12T00:07:22;33.00;;;16.25;;
38615;SDS011;24370;51.986;4.666;2023-09-12T00:09:47;28.98;;;14.75;;
38615;SDS011;24370;51.986;4.666;2023-09-12T00:12:16;26.90;;;14.20;;
38615;SDS011;24370;51.986;4.666;2023-09-12T00:14:42;29.17;;;14.60;;
38615;SDS011;24370;51.986;4.666;2023-09-12T00:17:08;28.75;;;14.88;;
38615;SDS011;24370;51.986;4.666;2023-09-12T00:19:34;25.58;;;12.93;;
38615;SDS011;24370;51.986;4.666;2023-09-12T00:22:00;26.35;;;14.55;;
38615;SDS011;24370;51.986;4.666;2023-09-12T00:24:25;24.30;;;12.60;;
38615;SDS011;24370;51.986;4.666;2023-09-12T00:26:50;25.42;;;12.30;;
38615;SDS011;24370;51.986;4.666;2023-09-12T00:29:16;19.42;;;10.77;;
38615;SDS011;24370;51.986;4.666;2023-09-12T00:31:41;18.08;;;9.70;;
38615;SDS011;24370;51.986;4.666;2023-09-12T00:34:07;17.48;;;10.05;;
38615;SDS011;24370;51.986;4.666;2023-09-12T00:36:32;19.35;;;9.57;;
38615;SDS011;24370;51.986;4.666;2023-09-12T00:38:58;20.52;;;9.65;;
38615;SDS011;24370;51.986;4.666;2023-09-12T00:41:23;20.60;;;10.90;;
38615;SDS011;24370;51.986;4.666;2023-09-12T00:43:49;19.45;;;10.38;;
38615;SDS011;24370;51.986;4.666;2023-09-12T00:46:16;19.73;;;10.45;;
38615;SDS011;24370;51.986;4.666;2023-09-12T00:48:43;17.20;;;9.63;;
38615;SDS011;24370;51.986;4.666;2023-09-12T00:51:11;18.23;;;9.43;;
38615;SDS011;24370;51.986;4.666;2023-09-12T00:53:39;18.48;;;8.75;;
38615;SDS011;24370;51.986;4.666;2023-09-12T00:56:05;18.88;;;8.18;;
38615;SDS011;24370;51.986;4.666;2023-09-12T00:58:31;13.57;;;7.97;;
38615;SDS011;24370;51.986;4.666;2023-09-12T01:00:58;13.15;;;7.70;;
38615;SDS011;24370;51.986;4.666;2023-09-12T01:03:23;14.30;;;7.20;;
38615;SDS011;24370;51.986;4.666;2023-09-12T01:05:49;17.63;;;7.63;;
38615;SDS011;24370;51.986;4.666;2023-09-12T01:08:16;20.67;;;8.68;;
38615;SDS011;24370;51.986;4.666;2023-09-12T01:10:42;16.55;;;8.57;;
38615;SDS011;24370;51.986;4.666;2023-09-12T01:13:11;16.85;;;7.82;;
38615;SDS011;24370;51.986;4.666;2023-09-12T01:15:38;14.75;;;8.55;;
38615;SDS011;24370;51.986;4.666;2023-09-12T01:18:04;15.25;;;8.48;;
38615;SDS011;24370;51.986;4.666;2023-09-12T01:20:33;20.02;;;10.05;;
38615;SDS011;24370;51.986;4.666;2023-09-12T01:28:29;20.10;;;10.50;;
38615;SDS011;24370;51.986;4.666;2023-09-12T01:30:56;21.27;;;9.82;;
38615;SDS011;24370;51.986;4.666;2023-09-12T01:33:23;22.02;;;9.98;;
38615;SDS011;24370;51.986;4.666;2023-09-12T01:35:49;19.90;;;10.57;;
38615;SDS011;24370;51.986;4.666;2023-09-12T01:38:15;24.13;;;10.95;;
38615;SDS011;24370;51.986;4.666;2023-09-12T01:40:44;19.30;;;10.65;;
38615;SDS011;24370;51.986;4.666;2023-09-12T01:43:12;22.60;;;11.70;;
38615;SDS011;24370;51.986;4.666;2023-09-12T01:45:41;21.58;;;9.60;;
38615;SDS011;24370;51.986;4.666;2023-09-12T01:48:07;20.77;;;10.43;;
38615;SDS011;24370;51.986;4.666;2023-09-12T01:50:33;23.95;;;11.38;;
38615;SDS011;24370;51.986;4.666;2023-09-12T01:53:01;25.25;;;11.20;;
38615;SDS011;24370;51.986;4.666;2023-09-12T01:55:26;20.67;;;10.40;;
38615;SDS011;24370;51.986;4.666;2023-09-12T01:57:52;23.75;;;10.85;;
38615;SDS011;24370;51.986;4.666;2023-09-12T02:00:18;25.70;;;11.93;;
38615;SDS011;24370;51.986;4.666;2023-09-12T02:02:45;25.55;;;11.82;;
38615;SDS011;24370;51.986;4.666;2023-09-12T02:05:11;20.38;;;10.32;;
38615;SDS011;24370;51.986;4.666;2023-09-12T02:07:42;25.55;;;11.77;;
38615;SDS011;24370;51.986;4.666;2023-09-12T02:10:08;23.17;;;11.40;;
38615;SDS011;24370;51.986;4.666;2023-09-12T02:12:34;21.80;;;10.45;;
38615;SDS011;24370;51.986;4.666;2023-09-12T02:15:00;20.50;;;10.77;;
38615;SDS011;24370;51.986;4.666;2023-09-12T02:17:25;23.02;;;11.23;;
38615;SDS011;24370;51.986;4.666;2023-09-12T02:19:51;18.38;;;10.02;;
38615;SDS011;24370;51.986;4.666;2023-09-12T02:22:16;19.08;;;9.73;;
38615;SDS011;24370;51.986;4.666;2023-09-12T02:24:42;16.48;;;9.05;;
38615;SDS011;24370;51.986;4.666;2023-09-12T02:27:07;12.98;;;7.93;;
38615;SDS011;24370;51.986;4.666;2023-09-12T02:29:33;14.15;;;8.07;;
38615;SDS011;24370;51.986;4.666;2023-09-12T02:31:59;16.05;;;8.88;;
38615;SDS011;24370;51.986;4.666;2023-09-12T02:34:24;15.07;;;9.10;;
38615;SDS011;24370;51.986;4.666;2023-09-12T02:36:50;14.88;;;7.85;;
38615;SDS011;24370;51.986;4.666;2023-09-12T02:39:15;16.95;;;8.75;;
38615;SDS011;24370;51.986;4.666;2023-09-12T02:41:41;19.38;;;10.35;;
38615;SDS011;24370;51.986;4.666;2023-09-12T02:44:07;18.70;;;9.90;;
38615;SDS011;24370;51.986;4.666;2023-09-12T02:46:32;21.67;;;10.88;;
38615;SDS011;24370;51.986;4.666;2023-09-12T02:48:58;17.13;;;8.40;;
38615;SDS011;24370;51.986;4.666;2023-09-12T02:51:25;22.63;;;11.07;;
38615;SDS011;24370;51.986;4.666;2023-09-12T02:53:51;25.88;;;11.57;;
38615;SDS011;24370;51.986;4.666;2023-09-12T02:56:16;24.13;;;11.73;;
38615;SDS011;24370;51.986;4.666;2023-09-12T02:58:45;25.75;;;11.73;;
38615;SDS011;24370;51.986;4.666;2023-09-12T03:01:14;25.17;;;11.45;;
38615;SDS011;24370;51.986;4.666;2023-09-12T03:03:43;25.52;;;11.80;;
38615;SDS011;24370;51.986;4.666;2023-09-12T03:06:11;24.42;;;10.73;;
38615;SDS011;24370;51.986;4.666;2023-09-12T03:08:39;30.05;;;12.10;;
38615;SDS011;24370;51.986;4.666;2023-09-12T03:11:05;24.75;;;10.88;;
38615;SDS011;24370;51.986;4.666;2023-09-12T03:13:32;22.77;;;12.02;;
38615;SDS011;24370;51.986;4.666;2023-09-12T03:15:59;27.05;;;11.27;;
38615;SDS011;24370;51.986;4.666;2023-09-12T03:18:24;26.52;;;11.48;;
38615;SDS011;24370;51.986;4.666;2023-09-12T03:20:50;23.75;;;11.07;;
38615;SDS011;24370;51.986;4.666;2023-09-12T03:23:15;23.55;;;10.68;;
38615;SDS011;24370;51.986;4.666;2023-09-12T03:25:41;22.17;;;10.23;;
38615;SDS011;24370;51.986;4.666;2023-09-12T03:28:07;20.52;;;9.82;;
38615;SDS011;24370;51.986;4.666;2023-09-12T03:30:33;24.75;;;10.20;;
38615;SDS011;24370;51.986;4.666;2023-09-12T03:32:59;21.30;;;10.00;;
38615;SDS011;24370;51.986;4.666;2023-09-12T03:35:25;24.48;;;11.50;;
38615;SDS011;24370;51.986;4.666;2023-09-12T03:37:50;24.58;;;11.45;;
38615;SDS011;24370;51.986;4.666;2023-09-12T03:40:16;22.73;;;11.32;;
38615;SDS011;24370;51.986;4.666;2023-09-12T03:42:41;23.00;;;11.57;;
38615;SDS011;24370;51.986;4.666;2023-09-12T03:45:07;23.73;;;11.63;;
38615;SDS011;24370;51.986;4.666;2023-09-12T03:47:33;20.42;;;10.27;;
38615;SDS011;24370;51.986;4.666;2023-09-12T03:49:59;24.15;;;11.52;;
38615;SDS011;24370;51.986;4.666;2023-09-12T03:52:24;29.95;;;12.38;;
38615;SDS011;24370;51.986;4.666;2023-09-12T03:54:50;22.05;;;10.73;;
38615;SDS011;24370;51.986;4.666;2023-09-12T03:57:15;22.98;;;11.57;;
38615;SDS011;24370;51.986;4.666;2023-09-12T03:59:41;23.33;;;10.70;;
38615;SDS011;24370;51.986;4.666;2023-09-12T04:02:07;26.30;;;12.70;;
38615;SDS011;24370;51.986;4.666;2023-09-12T04:04:32;30.92;;;12.13;;
38615;SDS011;24370;51.986;4.666;2023-09-12T04:06:57;30.55;;;12.98;;
38615;SDS011;24370;51.986;4.666;2023-09-12T04:09:23;30.27;;;13.75;;
38615;SDS011;24370;51.986;4.666;2023-09-12T04:11:48;32.83;;;11.85;;
38615;SDS011;24370;51.986;4.666;2023-09-12T04:14:14;26.70;;;11.23;;
38615;SDS011;24370;51.986;4.666;2023-09-12T04:16:39;28.73;;;12.23;;
38615;SDS011;24370;51.986;4.666;2023-09-12T04:19:05;30.58;;;12.65;;
38615;SDS011;24370;51.986;4.666;2023-09-12T04:21:30;29.35;;;12.05;;
38615;SDS011;24370;51.986;4.666;2023-09-12T04:23:56;28.35;;;12.60;;
38615;SDS011;24370;51.986;4.666;2023-09-12T04:26:21;29.85;;;12.82;;
38615;SDS011;24370;51.986;4.666;2023-09-12T04:28:47;25.52;;;10.23;;
38615;SDS011;24370;51.986;4.666;2023-09-12T04:31:12;25.30;;;10.95;;
38615;SDS011;24370;51.986;4.666;2023-09-12T04:33:38;31.95;;;12.20;;
38615;SDS011;24370;51.986;4.666;2023-09-12T04:36:03;29.10;;;11.55;;
38615;SDS011;24370;51.986;4.666;2023-09-12T04:38:29;30.52;;;11.82;;
38615;SDS011;24370;51.986;4.666;2023-09-12T04:41:00;25.73;;;12.07;;
38615;SDS011;24370;51.986;4.666;2023-09-12T04:43:30;29.10;;;12.15;;
38615;SDS011;24370;51.986;4.666;2023-09-12T04:45:58;32.03;;;13.38;;
38615;SDS011;24370;51.986;4.666;2023-09-12T04:48:23;24.17;;;11.18;;
38615;SDS011;24370;51.986;4.666;2023-09-12T04:50:49;29.23;;;12.82;;
38615;SDS011;24370;51.986;4.666;2023-09-12T04:53:14;23.40;;;11.57;;
38615;SDS011;24370;51.986;4.666;2023-09-12T04:55:40;24.63;;;11.15;;
38615;SDS011;24370;51.986;4.666;2023-09-12T04:58:05;29.95;;;12.18;;
38615;SDS011;24370;51.986;4.666;2023-09-12T05:00:32;27.67;;;11.43;;
38615;SDS011;24370;51.986;4.666;2023-09-12T05:02:58;27.13;;;11.77;;
38615;SDS011;24370;51.986;4.666;2023-09-12T05:05:23;25.52;;;11.15;;
38615;SDS011;24370;51.986;4.666;2023-09-12T05:07:49;27.63;;;12.02;;
38615;SDS011;24370;51.986;4.666;2023-09-12T05:10:16;29.13;;;13.00;;
38615;SDS011;24370;51.986;4.666;2023-09-12T05:12:42;27.20;;;12.27;;
38615;SDS011;24370;51.986;4.666;2023-09-12T05:15:07;26.17;;;11.75;;
38615;SDS011;24370;51.986;4.666;2023-09-12T05:17:33;31.77;;;13.77;;
38615;SDS011;24370;51.986;4.666;2023-09-12T05:19:58;28.98;;;11.43;;
38615;SDS011;24370;51.986;4.666;2023-09-12T05:22:24;25.60;;;12.93;;
38615;SDS011;24370;51.986;4.666;2023-09-12T05:24:49;29.70;;;12.98;;
38615;SDS011;24370;51.986;4.666;2023-09-12T05:27:15;29.38;;;12.65;;
38615;SDS011;24370;51.986;4.666;2023-09-12T05:29:40;26.83;;;12.20;;
38615;SDS011;24370;51.986;4.666;2023-09-12T05:32:06;29.70;;;12.25;;
38615;SDS011;24370;51.986;4.666;2023-09-12T05:34:31;31.00;;;13.07;;
38615;SDS011;24370;51.986;4.666;2023-09-12T05:36:57;30.95;;;13.15;;
38615;SDS011;24370;51.986;4.666;2023-09-12T05:39:22;31.58;;;13.27;;
38615;SDS011;24370;51.986;4.666;2023-09-12T05:41:48;29.23;;;13.35;;
38615;SDS011;24370;51.986;4.666;2023-09-12T05:44:14;27.55;;;12.70;;
38615;SDS011;24370;51.986;4.666;2023-09-12T05:46:46;25.45;;;11.73;;
38615;SDS011;24370;51.986;4.666;2023-09-12T05:49:12;30.30;;;12.40;;
38615;SDS011;24370;51.986;4.666;2023-09-12T05:51:38;27.23;;;12.52;;
38615;SDS011;24370;51.986;4.666;2023-09-12T05:54:03;34.45;;;13.60;;
38615;SDS011;24370;51.986;4.666;2023-09-12T05:56:29;35.45;;;13.15;;
38615;SDS011;24370;51.986;4.666;2023-09-12T05:58:55;28.20;;;13.13;;
38615;SDS011;24370;51.986;4.666;2023-09-12T06:01:20;30.55;;;13.43;;
38615;SDS011;24370;51.986;4.666;2023-09-12T06:03:45;35.60;;;14.02;;
38615;SDS011;24370;51.986;4.666;2023-09-12T06:06:11;39.28;;;14.80;;
38615;SDS011;24370;51.986;4.666;2023-09-12T06:08:39;30.83;;;12.68;;
38615;SDS011;24370;51.986;4.666;2023-09-12T06:11:05;33.95;;;14.20;;
38615;SDS011;24370;51.986;4.666;2023-09-12T06:13:30;39.65;;;13.70;;
38615;SDS011;24370;51.986;4.666;2023-09-12T06:15:57;39.35;;;14.02;;
38615;SDS011;24370;51.986;4.666;2023-09-12T06:18:23;36.88;;;14.10;;
38615;SDS011;24370;51.986;4.666;2023-09-12T06:20:49;32.03;;;13.38;;
38615;SDS011;24370;51.986;4.666;2023-09-12T06:23:14;36.08;;;13.40;;
38615;SDS011;24370;51.986;4.666;2023-09-12T06:25:40;44.42;;;15.98;;
38615;SDS011;24370;51.986;4.666;2023-09-12T06:28:05;35.40;;;14.52;;
38615;SDS011;24370;51.986;4.666;2023-09-12T06:30:33;39.67;;;14.25;;
38615;SDS011;24370;51.986;4.666;2023-09-12T06:32:59;39.63;;;14.25;;
38615;SDS011;24370;51.986;4.666;2023-09-12T06:35:24;41.90;;;15.00;;
38615;SDS011;24370;51.986;4.666;2023-09-12T06:37:50;42.97;;;15.55;;
38615;SDS011;24370;51.986;4.666;2023-09-12T06:40:15;39.80;;;15.77;;
38615;SDS011;24370;51.986;4.666;2023-09-12T06:42:41;43.55;;;14.68;;
38615;SDS011;24370;51.986;4.666;2023-09-12T06:45:08;46.30;;;16.23;;
38615;SDS011;24370;51.986;4.666;2023-09-12T06:47:33;49.80;;;17.25;;
38615;SDS011;24370;51.986;4.666;2023-09-12T06:49:59;49.15;;;17.48;;
38615;SDS011;24370;51.986;4.666;2023-09-12T06:52:24;50.28;;;16.45;;
38615;SDS011;24370;51.986;4.666;2023-09-12T06:54:49;51.05;;;17.83;;
38615;SDS011;24370;51.986;4.666;2023-09-12T06:57:15;49.97;;;16.15;;
38615;SDS011;24370;51.986;4.666;2023-09-12T06:59:40;51.67;;;16.15;;
38615;SDS011;24370;51.986;4.666;2023-09-12T07:02:06;53.60;;;18.08;;
38615;SDS011;24370;51.986;4.666;2023-09-12T07:04:33;43.28;;;14.02;;
38615;SDS011;24370;51.986;4.666;2023-09-12T07:06:59;48.53;;;18.00;;
38615;SDS011;24370;51.986;4.666;2023-09-12T07:09:24;46.00;;;16.77;;
38615;SDS011;24370;51.986;4.666;2023-09-12T07:11:49;41.95;;;17.15;;
38615;SDS011;24370;51.986;4.666;2023-09-12T07:14:15;41.58;;;15.82;;
38615;SDS011;24370;51.986;4.666;2023-09-12T07:16:40;40.03;;;16.23;;
38615;SDS011;24370;51.986;4.666;2023-09-12T07:19:05;46.08;;;16.35;;
38615;SDS011;24370;51.986;4.666;2023-09-12T07:21:31;47.83;;;16.58;;
38615;SDS011;24370;51.986;4.666;2023-09-12T07:23:57;37.10;;;15.60;;
38615;SDS011;24370;51.986;4.666;2023-09-12T07:26:23;40.28;;;16.48;;
38615;SDS011;24370;51.986;4.666;2023-09-12T07:28:48;47.47;;;16.75;;
38615;SDS011;24370;51.986;4.666;2023-09-12T07:31:14;44.90;;;16.25;;
38615;SDS011;24370;51.986;4.666;2023-09-12T07:33:39;42.90;;;17.08;;
38615;SDS011;24370;51.986;4.666;2023-09-12T07:36:06;47.45;;;17.75;;
38615;SDS011;24370;51.986;4.666;2023-09-12T07:38:31;46.50;;;18.67;;
38615;SDS011;24370;51.986;4.666;2023-09-12T07:40:57;36.70;;;15.90;;
38615;SDS011;24370;51.986;4.666;2023-09-12T07:43:23;34.28;;;15.90;;
38615;SDS011;24370;51.986;4.666;2023-09-12T07:45:48;34.05;;;14.73;;
38615;SDS011;24370;51.986;4.666;2023-09-12T07:48:14;33.08;;;14.82;;
38615;SDS011;24370;51.986;4.666;2023-09-12T07:50:40;31.80;;;14.75;;
38615;SDS011;24370;51.986;4.666;2023-09-12T07:53:06;35.22;;;14.55;;
38615;SDS011;24370;51.986;4.666;2023-09-12T07:55:32;37.25;;;14.73;;
38615;SDS011;24370;51.986;4.666;2023-09-12T07:58:10;34.40;;;15.20;;
38615;SDS011;24370;51.986;4.666;2023-09-12T08:00:38;36.35;;;15.55;;
38615;SDS011;24370;51.986;4.666;2023-09-12T08:03:04;36.75;;;16.45;;
38615;SDS011;24370;51.986;4.666;2023-09-12T08:05:29;32.85;;;15.20;;
38615;SDS011;24370;51.986;4.666;2023-09-12T08:07:55;34.38;;;14.98;;
38615;SDS011;24370;51.986;4.666;2023-09-12T08:10:20;37.47;;;15.77;;
38615;SDS011;24370;51.986;4.666;2023-09-12T08:12:46;36.45;;;16.52;;
38615;SDS011;24370;51.986;4.666;2023-09-12T08:15:11;40.50;;;16.80;;
38615;SDS011;24370;51.986;4.666;2023-09-12T08:17:37;39.47;;;16.33;;
38615;SDS011;24370;51.986;4.666;2023-09-12T08:20:03;36.88;;;16.23;;
38615;SDS011;24370;51.986;4.666;2023-09-12T08:22:30;34.53;;;16.15;;
38615;SDS011;24370;51.986;4.666;2023-09-12T08:24:55;38.35;;;16.38;;
38615;SDS011;24370;51.986;4.666;2023-09-12T08:27:21;38.40;;;17.10;;
38615;SDS011;24370;51.986;4.666;2023-09-12T08:29:46;34.65;;;16.38;;
38615;SDS011;24370;51.986;4.666;2023-09-12T08:32:13;37.28;;;17.35;;
38615;SDS011;24370;51.986;4.666;2023-09-12T08:34:38;38.97;;;17.67;;
38615;SDS011;24370;51.986;4.666;2023-09-12T08:37:04;36.20;;;16.23;;
38615;SDS011;24370;51.986;4.666;2023-09-12T08:39:40;37.50;;;16.65;;
38615;SDS011;24370;51.986;4.666;2023-09-12T08:42:08;36.80;;;16.92;;
38615;SDS011;24370;51.986;4.666;2023-09-12T08:44:37;38.83;;;16.80;;
38615;SDS011;24370;51.986;4.666;2023-09-12T08:47:03;37.75;;;16.95;;
38615;SDS011;24370;51.986;4.666;2023-09-12T08:49:31;32.22;;;15.38;;
38615;SDS011;24370;51.986;4.666;2023-09-12T08:52:00;32.53;;;16.13;;
38615;SDS011;24370;51.986;4.666;2023-09-12T08:54:25;32.58;;;15.95;;
38615;SDS011;24370;51.986;4.666;2023-09-12T08:56:50;34.22;;;15.35;;
38615;SDS011;24370;51.986;4.666;2023-09-12T08:59:16;31.48;;;14.60;;
38615;SDS011;24370;51.986;4.666;2023-09-12T09:01:42;30.05;;;15.35;;
38615;SDS011;24370;51.986;4.666;2023-09-12T09:04:09;34.72;;;16.48;;
38615;SDS011;24370;51.986;4.666;2023-09-12T09:06:36;33.55;;;14.82;;
38615;SDS011;24370;51.986;4.666;2023-09-12T09:09:04;33.83;;;14.52;;
38615;SDS011;24370;51.986;4.666;2023-09-12T09:11:32;29.48;;;14.77;;
38615;SDS011;24370;51.986;4.666;2023-09-12T09:13:58;32.15;;;16.35;;
38615;SDS011;24370;51.986;4.666;2023-09-12T09:16:23;34.88;;;15.95;;
38615;SDS011;24370;51.986;4.666;2023-09-12T09:18:52;35.35;;;15.95;;
38615;SDS011;24370;51.986;4.666;2023-09-12T09:21:28;31.38;;;14.95;;
38615;SDS011;24370;51.986;4.666;2023-09-12T09:23:58;33.92;;;15.07;;
38615;SDS011;24370;51.986;4.666;2023-09-12T09:26:25;33.63;;;15.65;;
38615;SDS011;24370;51.986;4.666;2023-09-12T09:29:07;33.15;;;15.43;;
38615;SDS011;24370;51.986;4.666;2023-09-12T09:31:34;36.00;;;15.43;;
38615;SDS011;24370;51.986;4.666;2023-09-12T09:34:00;35.55;;;16.48;;
38615;SDS011;24370;51.986;4.666;2023-09-12T09:36:26;32.72;;;15.43;;
38615;SDS011;24370;51.986;4.666;2023-09-12T09:38:53;32.88;;;16.27;;
38615;SDS011;24370;51.986;4.666;2023-09-12T09:41:20;35.08;;;15.60;;
38615;SDS011;24370;51.986;4.666;2023-09-12T09:43:48;34.25;;;15.85;;
38615;SDS011;24370;51.986;4.666;2023-09-12T09:46:18;31.48;;;15.35;;
38615;SDS011;24370;51.986;4.666;2023-09-12T09:48:50;30.85;;;15.68;;
38615;SDS011;24370;51.986;4.666;2023-09-12T09:51:16;32.58;;;15.93;;
38615;SDS011;24370;51.986;4.666;2023-09-12T09:53:42;32.15;;;16.58;;
38615;SDS011;24370;51.986;4.666;2023-09-12T09:56:12;29.88;;;15.98;;
38615;SDS011;24370;51.986;4.666;2023-09-12T09:58:52;34.08;;;18.42;;
38615;SDS011;24370;51.986;4.666;2023-09-12T10:01:26;32.95;;;16.88;;
38615;SDS011;24370;51.986;4.666;2023-09-12T10:03:55;31.20;;;15.05;;
38615;SDS011;24370;51.986;4.666;2023-09-12T10:06:24;29.08;;;15.75;;
38615;SDS011;24370;51.986;4.666;2023-09-12T10:08:52;25.38;;;13.63;;
38615;SDS011;24370;51.986;4.666;2023-09-12T10:11:19;33.92;;;15.85;;
38615;SDS011;24370;51.986;4.666;2023-09-12T10:13:57;28.98;;;13.73;;
38615;SDS011;24370;51.986;4.666;2023-09-12T10:16:25;28.40;;;13.80;;
38615;SDS011;24370;51.986;4.666;2023-09-12T10:21:32;25.38;;;12.63;;
38615;SDS011;24370;51.986;4.666;2023-09-12T10:24:00;24.85;;;14.23;;
38615;SDS011;24370;51.986;4.666;2023-09-12T10:26:28;24.60;;;13.38;;
38615;SDS011;24370;51.986;4.666;2023-09-12T10:28:56;27.45;;;12.60;;
38615;SDS011;24370;51.986;4.666;2023-09-12T10:31:24;25.73;;;12.95;;
38615;SDS011;24370;51.986;4.666;2023-09-12T10:33:51;24.40;;;12.88;;
38615;SDS011;24370;51.986;4.666;2023-09-12T10:36:18;23.70;;;13.27;;
38615;SDS011;24370;51.986;4.666;2023-09-12T10:38:46;22.15;;;11.43;;
38615;SDS011;24370;51.986;4.666;2023-09-12T10:41:14;24.17;;;12.13;;
38615;SDS011;24370;51.986;4.666;2023-09-12T10:43:41;23.65;;;12.30;;
38615;SDS011;24370;51.986;4.666;2023-09-12T10:46:08;23.75;;;12.95;;
38615;SDS011;24370;51.986;4.666;2023-09-12T10:48:37;23.95;;;12.77;;
38615;SDS011;24370;51.986;4.666;2023-09-12T10:51:05;21.17;;;11.48;;
38615;SDS011;24370;51.986;4.666;2023-09-12T10:53:32;25.55;;;11.23;;
38615;SDS011;24370;51.986;4.666;2023-09-12T10:56:01;18.75;;;10.43;;
38615;SDS011;24370;51.986;4.666;2023-09-12T11:01:32;19.20;;;10.35;;
38615;SDS011;24370;51.986;4.666;2023-09-12T11:04:29;22.35;;;11.32;;
38615;SDS011;24370;51.986;4.666;2023-09-12T11:06:44;25.70;;;11.82;;
38615;SDS011;24370;51.986;4.666;2023-09-12T11:11:39;18.77;;;9.85;;
38615;SDS011;24370;51.986;4.666;2023-09-12T11:14:07;25.35;;;12.35;;
38615;SDS011;24370;51.986;4.666;2023-09-12T11:16:33;21.38;;;11.27;;
38615;SDS011;24370;51.986;4.666;2023-09-12T11:19:19;20.77;;;11.02;;
38615;SDS011;24370;51.986;4.666;2023-09-12T11:21:49;24.10;;;12.35;;
38615;SDS011;24370;51.986;4.666;2023-09-12T11:24:15;24.42;;;11.60;;
38615;SDS011;24370;51.986;4.666;2023-09-12T11:27:00;20.63;;;11.43;;
38615;SDS011;24370;51.986;4.666;2023-09-12T11:29:30;27.58;;;12.52;;
38615;SDS011;24370;51.986;4.666;2023-09-12T11:32:01;25.05;;;13.30;;
38615;SDS011;24370;51.986;4.666;2023-09-12T11:34:28;23.05;;;11.90;;
38615;SDS011;24370;51.986;4.666;2023-09-12T11:36:55;24.52;;;11.85;;
38615;SDS011;24370;51.986;4.666;2023-09-12T11:39:35;23.30;;;11.27;;
38615;SDS011;24370;51.986;4.666;2023-09-12T11:42:01;22.27;;;11.63;;
38615;SDS011;24370;51.986;4.666;2023-09-12T11:44:29;19.45;;;10.65;;
38615;SDS011;24370;51.986;4.666;2023-09-12T11:46:56;21.50;;;10.55;;
38615;SDS011;24370;51.986;4.666;2023-09-12T11:49:28;18.80;;;9.43;;
38615;SDS011;24370;51.986;4.666;2023-09-12T11:52:01;19.40;;;10.43;;
38615;SDS011;24370;51.986;4.666;2023-09-12T11:54:27;20.38;;;10.55;;
38615;SDS011;24370;51.986;4.666;2023-09-12T11:56:54;20.40;;;11.75;;
38615;SDS011;24370;51.986;4.666;2023-09-12T11:59:25;20.20;;;10.15;;
38615;SDS011;24370;51.986;4.666;2023-09-12T12:01:51;13.70;;;7.00;;
38615;SDS011;24370;51.986;4.666;2023-09-12T12:04:20;8.00;;;4.50;;
38615;SDS011;24370;51.986;4.666;2023-09-12T12:06:45;6.38;;;4.25;;
38615;SDS011;24370;51.986;4.666;2023-09-12T12:09:11;7.75;;;4.97;;
38615;SDS011;24370;51.986;4.666;2023-09-12T12:11:36;5.82;;;3.45;;
38615;SDS011;24370;51.986;4.666;2023-09-12T12:14:13;4.82;;;3.50;;
38615;SDS011;24370;51.986;4.666;2023-09-12T12:16:43;8.00;;;4.40;;
38615;SDS011;24370;51.986;4.666;2023-09-12T12:19:09;7.78;;;4.80;;
38615;SDS011;24370;51.986;4.666;2023-09-12T12:21:36;8.40;;;4.38;;
38615;SDS011;24370;51.986;4.666;2023-09-12T12:24:03;5.88;;;4.45;;
38615;SDS011;24370;51.986;4.666;2023-09-12T12:26:32;9.35;;;4.78;;
38615;SDS011;24370;51.986;4.666;2023-09-12T12:28:59;10.32;;;4.90;;
38615;SDS011;24370;51.986;4.666;2023-09-12T12:31:26;8.18;;;4.68;;
38615;SDS011;24370;51.986;4.666;2023-09-12T12:33:56;7.05;;;4.78;;
38615;SDS011;24370;51.986;4.666;2023-09-12T12:36:22;8.23;;;5.18;;
38615;SDS011;24370;51.986;4.666;2023-09-12T12:38:48;10.18;;;6.00;;
38615;SDS011;24370;51.986;4.666;2023-09-12T12:41:22;10.20;;;5.80;;
38615;SDS011;24370;51.986;4.666;2023-09-12T12:43:49;7.85;;;3.88;;
38615;SDS011;24370;51.986;4.666;2023-09-12T12:46:20;7.32;;;4.90;;
38615;SDS011;24370;51.986;4.666;2023-09-12T12:48:49;10.02;;;5.00;;
38615;SDS011;24370;51.986;4.666;2023-09-12T12:53:42;7.80;;;4.25;;
38615;SDS011;24370;51.986;4.666;2023-09-12T12:56:11;8.88;;;4.32;;
38615;SDS011;24370;51.986;4.666;2023-09-12T12:58:45;5.40;;;4.40;;
38615;SDS011;24370;51.986;4.666;2023-09-12T13:01:11;7.13;;;4.25;;
38615;SDS011;24370;51.986;4.666;2023-09-12T13:03:36;7.95;;;4.85;;
38615;SDS011;24370;51.986;4.666;2023-09-12T13:06:02;8.52;;;5.30;;
38615;SDS011;24370;51.986;4.666;2023-09-12T13:08:27;8.30;;;5.70;;
38615;SDS011;24370;51.986;4.666;2023-09-12T13:10:52;8.82;;;4.68;;
38615;SDS011;24370;51.986;4.666;2023-09-12T13:13:18;4.65;;;3.35;;
38615;SDS011;24370;51.986;4.666;2023-09-12T13:15:43;7.10;;;3.80;;
38615;SDS011;24370;51.986;4.666;2023-09-12T13:18:09;4.93;;;2.70;;
38615;SDS011;24370;51.986;4.666;2023-09-12T13:20:35;6.72;;;3.90;;
38615;SDS011;24370;51.986;4.666;2023-09-12T13:23:00;5.45;;;3.30;;
38615;SDS011;24370;51.986;4.666;2023-09-12T13:25:25;3.22;;;2.67;;
38615;SDS011;24370;51.986;4.666;2023-09-12T13:27:51;5.35;;;2.58;;
38615;SDS011;24370;51.986;4.666;2023-09-12T13:30:16;3.80;;;2.53;;
38615;SDS011;24370;51.986;4.666;2023-09-12T13:32:41;6.40;;;4.65;;
38615;SDS011;24370;51.986;4.666;2023-09-12T13:35:07;6.55;;;4.53;;
38615;SDS011;24370;51.986;4.666;2023-09-12T13:37:33;4.18;;;2.95;;
38615;SDS011;24370;51.986;4.666;2023-09-12T13:39:58;4.35;;;3.30;;
38615;SDS011;24370;51.986;4.666;2023-09-12T13:42:24;3.85;;;3.10;;
38615;SDS011;24370;51.986;4.666;2023-09-12T13:44:53;6.07;;;3.65;;
38615;SDS011;24370;51.986;4.666;2023-09-12T13:47:18;6.13;;;3.63;;
38615;SDS011;24370;51.986;4.666;2023-09-12T13:49:47;4.75;;;3.45;;
38615;SDS011;24370;51.986;4.666;2023-09-12T13:52:13;5.05;;;3.47;;
38615;SDS011;24370;51.986;4.666;2023-09-12T13:54:39;4.85;;;4.05;;
38615;SDS011;24370;51.986;4.666;2023-09-12T13:57:05;5.35;;;3.70;;
38615;SDS011;24370;51.986;4.666;2023-09-12T13:59:30;5.95;;;3.70;;
38615;SDS011;24370;51.986;4.666;2023-09-12T14:01:55;4.85;;;3.38;;
38615;SDS011;24370;51.986;4.666;2023-09-12T14:04:21;4.43;;;2.35;;
38615;SDS011;24370;51.986;4.666;2023-09-12T14:06:46;5.20;;;3.03;;
38615;SDS011;24370;51.986;4.666;2023-09-12T14:09:11;4.38;;;2.58;;
38615;SDS011;24370;51.986;4.666;2023-09-12T14:11:37;4.75;;;3.17;;
38615;SDS011;24370;51.986;4.666;2023-09-12T14:14:03;3.63;;;2.58;;
38615;SDS011;24370;51.986;4.666;2023-09-12T14:16:29;4.25;;;1.73;;
38615;SDS011;24370;51.986;4.666;2023-09-12T14:18:55;4.53;;;2.45;;
38615;SDS011;24370;51.986;4.666;2023-09-12T14:21:20;2.22;;;1.83;;
38615;SDS011;24370;51.986;4.666;2023-09-12T14:23:46;2.47;;;1.88;;
38615;SDS011;24370;51.986;4.666;2023-09-12T14:26:11;8.32;;;2.67;;
38615;SDS011;24370;51.986;4.666;2023-09-12T14:28:37;6.35;;;2.25;;
38615;SDS011;24370;51.986;4.666;2023-09-12T14:31:03;4.63;;;2.60;;
38615;SDS011;24370;51.986;4.666;2023-09-12T14:33:30;2.63;;;2.28;;
38615;SDS011;24370;51.986;4.666;2023-09-12T14:35:55;4.20;;;2.30;;
38615;SDS011;24370;51.986;4.666;2023-09-12T14:38:21;6.32;;;2.67;;
38615;SDS011;24370;51.986;4.666;2023-09-12T14:40:46;3.65;;;2.55;;